This is the latest recevied weather packets stored in our database for station/object KD5BIG-13. If no packets are shown the sender has not sent any weather packets the latest 10 day(s).
| Time | Temp. | Humidity | Pressure | Rain* | Wind** | Luminosity | Snow |
|---|---|---|---|---|---|---|---|
| 1777954159 | 15.56° C | 83% | 1016.8 hPa | 0 mm | - | 0 W/m² | - |
| 1777953857 | 15.56° C | 84% | 1016.8 hPa | 0 mm | - | 0 W/m² | - |
| 1777953553 | 15.56° C | 84% | 1016.9 hPa | 0 mm | - | 0 W/m² | - |
| 1777953249 | 15.56° C | 84% | 1016.9 hPa | 0 mm | - | 0 W/m² | - |
| 1777952947 | 16.11° C | 84% | 1017 hPa | 0 mm | - | 0 W/m² | - |
| 1777952643 | 16.11° C | 84% | 1016.8 hPa | 0 mm | - | 0 W/m² | - |
| 1777952340 | 16.11° C | 83% | 1016.7 hPa | 0 mm | - | 0 W/m² | - |
| 1777952037 | 16.11° C | 81% | 1016.8 hPa | 0 mm | - | 0 W/m² | - |
| 1777951735 | 16.11° C | 82% | 1016.8 hPa | 0 mm | - | 0 W/m² | - |
| 1777951431 | 16.11° C | 82% | 1016.6 hPa | 0 mm | - | 0 W/m² | - |
| 1777951128 | 16.67° C | 81% | 1016.7 hPa | 0 mm | - | 0 W/m² | - |
| 1777950825 | 16.67° C | 81% | 1016.6 hPa | 0 mm | - | 0 W/m² | - |
| 1777950523 | 16.67° C | 81% | 1016.6 hPa | 0 mm | - | 0 W/m² | - |
| 1777950218 | 16.67° C | 81% | 1016.7 hPa | 0 mm | - | 0 W/m² | - |
| 1777949913 | 16.67° C | 80% | 1016.4 hPa | 0 mm | - | 0 W/m² | - |
| 1777949611 | 16.67° C | 80% | 1016.3 hPa | 0 mm | - | 0 W/m² | - |
| 1777949310 | 16.67° C | 80% | 1016.2 hPa | 0 mm | - | 0 W/m² | - |
| 1777949007 | 16.67° C | 79% | 1016.3 hPa | 0 mm | - | 0 W/m² | - |
| 1777948704 | 17.22° C | 81% | 1016 hPa | 0 mm | - | 0 W/m² | - |
| 1777948401 | 16.67° C | 78% | 1016.3 hPa | 0 mm | - | 0 W/m² | - |
| 1777948098 | 17.22° C | 82% | 1016.1 hPa | 0 mm | - | 0 W/m² | - |
| 1777947795 | 17.22° C | 80% | 1016.1 hPa | 0 mm | - | 0 W/m² | - |
| 1777947493 | 17.22° C | 80% | 1016 hPa | 0 mm | - | 0 W/m² | - |
| 1777947189 | 17.22° C | 80% | 1016 hPa | 0 mm | - | 0 W/m² | - |
| 1777946885 | 17.22° C | 79% | 1016.1 hPa | 0 mm | - | 0 W/m² | - |
* Rain latest hour (hover to see other rain measurements)
** Current wind speed in m/s (hover to see current wind gust speed)